• Join FlightAware (Why Join?)
  • Login
  • US Flag 
07:32AM EDT


 

Airport Tracker/Info


-or-


 

Live Flight TrackerFlight Track Log ✈ N3714X ✈ 28-Feb-2012 ✈ KEAT - KMWH

Flight Track Log - Related Links

Times and Time Zones

All times are in EST time to prevent confusion due to time zone crossing. See the N3714X flight status page for this flight to view local times or setup timezone preferences in your user account.

Time Position Orientation Groundspeed Altitude Reporting Facility
EST Latitude Longitude Course Direction KTS MPH feet Rate Location/Type
04:03PM 47.3906 -120.1856 298° West 95 109 4,400  Level Seattle Center
04:04PM 47.4025 -120.2192 146° Southeast 93 107 4,700 300 Climbing Seattle Center
04:05PM 47.3858 -120.2028 123° Southeast 74 85 5,100 420 Climbing Seattle Center
04:06PM 47.3756 -120.1797 119° Southeast 67 77 5,600 540 Climbing Seattle Center
04:07PM 47.3664 -120.1553 113° Southeast 68 78 6,300 600 Climbing Seattle Center
04:08PM 47.3586 -120.1281 121° Southeast 70 81 6,900 360 Climbing Seattle Center
04:09PM 47.3481 -120.1025 127° Southeast 73 84 7,100 60 Climbing Seattle Center
04:10PM 47.3331 -120.0736 122° Southeast 83 96 7,100 -60 Level Seattle Center
04:11PM 47.3200 -120.0431 89° East 88 101 7,000 -60 Descending Seattle Center
04:12PM 47.3203 -120.0047 75° East 93 107 7,000  Level Seattle Center
04:13PM 47.3286 -119.9589 62° Northeast 102 117 7,000  Level Seattle Center
04:14PM 47.3431 -119.9189 73° East 105 121 7,000  Level Seattle Center
04:15PM 47.3517 -119.8772 82° East 107 123 7,100  Climbing Seattle Center
04:16PM 47.3556 -119.8344 87° East 106 122 7,000 -120 Descending Seattle Center
04:17PM 47.3572 -119.7928 81° East 103 119 6,900 -300 Descending Seattle Center
04:18PM 47.3617 -119.7506 70° East 105 121 6,500 -480 Descending Seattle Center
04:19PM 47.3722 -119.7078 70° East 114 131 6,000 -540 Descending Seattle Center
04:20PM 47.3825 -119.6664 71° East 109 125 5,500 -540 Descending Seattle Center
04:21PM 47.3919 -119.6264 79° East 104 120 5,000 -420 Descending Seattle Center
04:22PM 47.3969 -119.5894 87° East 96 110 4,700 -420 Descending Seattle Center
04:23PM 47.3981 -119.5539 79° East 84 97 4,200 -300 Descending Seattle Center
04:24PM 47.4025 -119.5200 76° East 92 106 4,100 -60 Descending Seattle Center
04:25PM 47.4089 -119.4825 69° East 94 108 4,100  Level Seattle Center
04:26PM 47.4197 -119.4417 121° Southeast 89 102 4,100 -180 Level Seattle Center
04:27PM 47.4097 -119.4175 152° Southeast 100 115 3,800 -300 Descending Seattle Center
04:28PM 47.3875 -119.4003 162° South 87 100 3,600 -240 Descending Seattle Center
04:29PM 47.3597 -119.3867 165° South 105 121 3,400 -180 Descending Seattle Center
04:31PM 47.3336 -119.3764 165° South 101 116 3,300 -120 Descending Seattle Center
04:32PM 47.3075 -119.3658 164° South 101 116 3,200 -360 Descending Seattle Center
04:33PM 47.2753 -119.3519 161° South 110 127 2,600 -660 Descending Seattle Center
04:34PM 47.2425 -119.3353 162° South 115 132 1,900 -660 Descending Seattle Center
04:35PM 47.2178 -119.3236 159° South 93 107 1,300 -360 Descending Seattle Center
04:36PM 47.2050 -119.3164 159° South 78 90 1,200 -120 Descending Seattle Center